Time;durP1;ratioP1;P1;durP2;ratioP2;P2;SDS_P1;SDS_P2;PMS_P1;PMS_P2;Temp;Humidity;BMP_temperature;BMP_pressure;BME280_temperature;BME280_humidity;BME280_pressure;Samples;Min_cycle;Max_cycle;Signal;HPM_P1;HPM_P2
2023/04/01 00:00:16;;;;;;;7.95;4.50;;;10.50;99.90;;;;;;5012282;28;20034;-66
2023/04/01 00:02:42;;;;;;;9.07;4.53;;;10.50;99.90;;;;;;5028719;28;20087;-66
2023/04/01 00:05:10;;;;;;;6.78;4.72;;;10.50;99.90;;;;;;5024538;28;20041;-66
2023/04/01 00:07:36;;;;;;;7.75;4.70;;;10.50;99.90;;;;;;5020308;28;20050;-66
2023/04/01 00:10:03;;;;;;;8.45;4.35;;;10.50;99.90;;;;;;5023490;28;20072;-66
2023/04/01 00:12:29;;;;;;;8.48;4.80;;;10.50;99.90;;;;;;5008534;28;20103;-66
2023/04/01 00:14:55;;;;;;;8.15;4.50;;;10.40;99.90;;;;;;5004785;28;20046;-66
2023/04/01 00:17:21;;;;;;;6.32;4.47;;;10.40;99.90;;;;;;5000050;28;20043;-66
2023/04/01 00:19:46;;;;;;;7.30;4.43;;;10.40;99.90;;;;;;5024758;28;20026;-66
2023/04/01 00:22:12;;;;;;;6.60;4.72;;;10.40;99.90;;;;;;5033249;28;20037;-66
2023/04/01 00:24:38;;;;;;;10.52;4.57;;;10.40;99.90;;;;;;5024595;28;20554;-66
2023/04/01 00:27:04;;;;;;;7.05;4.68;;;10.40;99.90;;;;;;5022327;28;20055;-66
2023/04/01 00:29:30;;;;;;;7.78;4.88;;;10.30;99.90;;;;;;5026323;28;20491;-66
2023/04/01 00:31:59;;;;;;;8.98;4.85;;;10.40;99.90;;;;;;5021257;28;20516;-66
2023/04/01 00:34:25;;;;;;;8.10;4.43;;;10.30;99.90;;;;;;5009792;28;20040;-66
2023/04/01 00:36:52;;;;;;;8.90;4.88;;;10.30;99.90;;;;;;5029114;28;20049;-66
2023/04/01 00:39:18;;;;;;;7.55;4.13;;;10.30;99.90;;;;;;5023448;28;20365;-67
2023/04/01 00:41:44;;;;;;;7.18;4.88;;;10.30;99.90;;;;;;5025870;28;20083;-66
2023/04/01 00:44:22;;;;;;;7.95;4.25;;;10.30;99.90;;;;;;5023109;28;20077;-66
2023/04/01 00:46:49;;;;;;;6.25;3.85;;;10.30;99.90;;;;;;5015128;28;20056;-66
2023/04/01 00:49:16;;;;;;;5.53;3.45;;;10.30;99.90;;;;;;5020488;28;20029;-66
2023/04/01 00:51:45;;;;;;;4.60;3.28;;;10.30;99.90;;;;;;5031859;28;20380;-66
2023/04/01 00:54:12;;;;;;;5.38;3.30;;;10.30;99.90;;;;;;5024312;28;20049;-66
2023/04/01 00:56:49;;;;;;;4.50;3.13;;;10.30;99.90;;;;;;5033101;28;20033;-66
2023/04/01 00:59:19;;;;;;;6.28;3.45;;;10.30;99.90;;;;;;5020548;28;20029;-66
2023/04/01 01:01:45;;;;;;;6.68;3.95;;;10.30;99.90;;;;;;5024805;28;20037;-66
2023/04/01 01:04:33;;;;;;;7.88;4.25;;;10.30;99.90;;;;;;5031505;28;20044;-66
2023/04/01 01:07:22;;;;;;;9.35;4.20;;;10.30;99.90;;;;;;5023564;28;20045;-66
2023/04/01 01:10:06;;;;;;;10.10;4.35;;;10.30;99.90;;;;;;5020127;28;20057;-66
2023/04/01 01:12:40;;;;;;;7.30;4.18;;;10.30;99.90;;;;;;5017099;28;20037;-66
2023/04/01 01:15:05;;;;;;;8.35;4.72;;;10.30;99.90;;;;;;5021021;28;20420;-66
2023/04/01 01:17:49;;;;;;;9.60;4.40;;;10.30;99.90;;;;;;5023088;28;20041;-66
2023/04/01 01:20:39;;;;;;;9.38;4.47;;;10.30;99.90;;;;;;5024391;23;20331;-67
2023/04/01 01:23:25;;;;;;;7.05;4.38;;;10.30;99.90;;;;;;5011545;28;20073;-66
2023/04/01 01:26:33;;;;;;;11.88;4.55;;;10.30;99.90;;;;;;4983482;28;20396;-66
2023/04/01 01:29:20;;;;;;;8.43;4.40;;;10.30;99.90;;;;;;5008901;28;20038;-67
2023/04/01 01:32:26;;;;;;;8.85;4.50;;;10.30;99.90;;;;;;5007574;28;20038;-67
2023/04/01 01:34:55;;;;;;;9.77;4.15;;;10.30;99.90;;;;;;5003518;28;20069;-67
2023/04/01 01:37:26;;;;;;;8.55;4.30;;;10.20;99.90;;;;;;5004033;28;20061;-67
2023/04/01 01:39:59;;;;;;;6.55;4.07;;;10.20;99.90;;;;;;5001726;28;20038;-67
2023/04/01 01:42:26;;;;;;;9.18;5.00;;;10.20;99.90;;;;;;4997938;28;20034;-66
2023/04/01 01:44:55;;;;;;;10.57;5.13;;;10.20;99.90;;;;;;5011791;28;20037;-67
2023/04/01 01:47:23;;;;;;;8.90;4.93;;;10.20;99.90;;;;;;5011891;28;20054;-66
2023/04/01 01:49:50;;;;;;;10.77;4.82;;;10.20;99.90;;;;;;4995967;28;20504;-66
2023/04/01 01:52:17;;;;;;;7.85;4.53;;;10.20;99.90;;;;;;5003986;28;20034;-67
2023/04/01 01:54:54;;;;;;;5.97;4.05;;;10.30;99.90;;;;;;5011906;28;20117;-67
2023/04/01 01:57:29;;;;;;;8.77;4.30;;;10.20;99.90;;;;;;5004815;28;20404;-66
2023/04/01 02:00:00;;;;;;;6.00;3.90;;;10.20;99.90;;;;;;5003999;28;20710;-67
2023/04/01 02:02:27;;;;;;;10.30;4.00;;;10.20;99.90;;;;;;5011776;28;20046;-66
2023/04/01 02:04:53;;;;;;;9.35;4.28;;;10.20;99.90;;;;;;5008519;28;20119;-67
2023/04/01 02:07:27;;;;;;;8.35;4.20;;;10.20;99.90;;;;;;5009142;28;20080;-67
2023/04/01 02:09:53;;;;;;;8.45;4.45;;;10.20;99.90;;;;;;5011627;28;20073;-67
2023/04/01 02:12:21;;;;;;;6.78;4.57;;;10.20;99.90;;;;;;5011757;28;20038;-67
2023/04/01 02:14:56;;;;;;;8.32;4.47;;;10.20;99.90;;;;;;5003287;28;20042;-67
2023/04/01 02:17:26;;;;;;;8.40;4.25;;;10.20;99.90;;;;;;5003103;28;20389;-67
2023/04/01 02:19:56;;;;;;;9.15;4.45;;;10.20;99.90;;;;;;5011521;28;20519;-67
2023/04/01 02:22:33;;;;;;;9.00;4.50;;;10.20;99.90;;;;;;5001864;28;20166;-67
2023/04/01 02:25:05;;;;;;;7.13;4.10;;;10.20;99.90;;;;;;5005372;28;20069;-66
2023/04/01 02:27:31;;;;;;;7.35;4.28;;;10.20;99.90;;;;;;4993832;28;20053;-67
2023/04/01 02:29:58;;;;;;;7.55;4.47;;;10.20;99.90;;;;;;4990896;28;20045;-67
2023/04/01 02:32:24;;;;;;;9.63;4.32;;;10.30;99.90;;;;;;5003123;28;20038;-66
2023/04/01 02:34:51;;;;;;;9.48;4.78;;;10.30;99.90;;;;;;5011201;28;20088;-67
2023/04/01 02:37:17;;;;;;;9.13;4.72;;;10.20;99.90;;;;;;5011328;28;20041;-67
2023/04/01 02:39:42;;;;;;;9.05;4.40;;;10.20;99.90;;;;;;4984470;28;20049;-67
2023/04/01 02:42:08;;;;;;;10.15;4.57;;;10.20;99.90;;;;;;5010531;28;20076;-67
2023/04/01 02:44:34;;;;;;;8.25;4.80;;;10.20;99.90;;;;;;5010983;28;20041;-67
2023/04/01 02:47:00;;;;;;;7.63;4.85;;;10.20;99.90;;;;;;5011692;28;20049;-67
2023/04/01 02:49:26;;;;;;;8.40;4.78;;;10.20;99.90;;;;;;4988254;28;20096;-67
2023/04/01 02:51:51;;;;;;;9.55;4.85;;;10.20;99.90;;;;;;5003459;28;20046;-67
2023/04/01 02:54:17;;;;;;;9.85;4.72;;;10.20;99.90;;;;;;5014943;28;20046;-67
2023/04/01 02:56:43;;;;;;;9.63;5.05;;;10.20;99.90;;;;;;5010795;28;20030;-67
2023/04/01 02:59:09;;;;;;;9.32;4.63;;;10.20;99.90;;;;;;5005810;28;20048;-67
2023/04/01 03:01:34;;;;;;;12.85;5.32;;;10.20;99.90;;;;;;5014801;28;20030;-66
2023/04/01 03:04:00;;;;;;;9.65;4.90;;;10.30;99.90;;;;;;5012213;28;20176;-67
2023/04/01 03:06:26;;;;;;;11.23;5.40;;;10.30;99.90;;;;;;5001806;28;20388;-67
2023/04/01 03:08:51;;;;;;;9.55;5.50;;;10.30;99.90;;;;;;5010812;28;20038;-67
2023/04/01 03:11:17;;;;;;;8.77;4.78;;;10.30;99.90;;;;;;5014566;28;20131;-67
2023/04/01 03:13:42;;;;;;;8.90;4.63;;;10.30;99.90;;;;;;4999597;28;20045;-67
2023/04/01 03:16:08;;;;;;;8.88;5.35;;;10.30;99.90;;;;;;5012874;28;20044;-67
2023/04/01 03:18:34;;;;;;;8.73;4.82;;;10.30;99.90;;;;;;5014447;28;20045;-67
2023/04/01 03:21:22;;;;;;;8.15;5.00;;;10.30;99.90;;;;;;5007517;28;20049;-67
2023/04/01 03:23:48;;;;;;;8.38;5.43;;;10.30;99.90;;;;;;5009750;28;20038;-67
2023/04/01 03:26:14;;;;;;;11.10;5.82;;;10.30;99.90;;;;;;5007314;28;20611;-66
2023/04/01 03:28:39;;;;;;;10.27;5.18;;;10.30;99.90;;;;;;5021563;28;20033;-67
2023/04/01 03:31:05;;;;;;;9.13;4.70;;;10.30;99.90;;;;;;5002968;28;20400;-67
2023/04/01 03:33:32;;;;;;;10.85;4.72;;;10.30;99.90;;;;;;5013883;28;20048;-67
2023/04/01 03:35:57;;;;;;;7.35;5.00;;;10.30;99.90;;;;;;5012061;28;20037;-67
2023/04/01 03:38:23;;;;;;;10.63;5.35;;;10.30;99.90;;;;;;5008212;28;20031;-67
2023/04/01 03:40:48;;;;;;;8.95;4.68;;;10.30;99.90;;;;;;5009345;28;20396;-67
2023/04/01 03:43:16;;;;;;;9.57;5.53;;;10.30;99.90;;;;;;5014279;28;20042;-66
2023/04/01 03:45:49;;;;;;;9.50;5.00;;;10.30;99.90;;;;;;4976412;28;20041;-67
2023/04/01 03:48:15;;;;;;;7.72;4.93;;;10.30;99.90;;;;;;5007803;28;20084;-67
2023/04/01 03:50:41;;;;;;;9.57;5.07;;;10.40;99.90;;;;;;4999231;28;20038;-67
2023/04/01 03:53:07;;;;;;;9.68;4.90;;;10.30;99.90;;;;;;5013295;28;20041;-67
2023/04/01 03:55:33;;;;;;;9.77;5.68;;;10.40;99.90;;;;;;5010345;28;20064;-67
2023/04/01 03:57:59;;;;;;;9.10;5.03;;;10.40;99.90;;;;;;5003757;28;20046;-67
2023/04/01 04:00:25;;;;;;;8.85;5.10;;;10.30;99.90;;;;;;5013371;28;20115;-67
2023/04/01 04:02:50;;;;;;;9.25;5.55;;;10.30;99.90;;;;;;4985549;28;20066;-67
2023/04/01 04:05:16;;;;;;;12.27;5.60;;;10.30;99.90;;;;;;5010686;28;20448;-67
2023/04/01 04:07:41;;;;;;;10.70;5.10;;;10.40;99.90;;;;;;4995338;28;20060;-67
2023/04/01 04:10:07;;;;;;;9.00;5.22;;;10.30;99.90;;;;;;5005666;28;20054;-67
2023/04/01 04:12:33;;;;;;;9.68;5.65;;;10.30;99.90;;;;;;5012577;28;20037;-67
2023/04/01 04:14:58;;;;;;;10.80;5.57;;;10.30;99.90;;;;;;5013251;28;20038;-67
2023/04/01 04:17:24;;;;;;;10.93;5.60;;;10.30;99.90;;;;;;5013277;28;20049;-67
2023/04/01 04:19:50;;;;;;;10.13;5.22;;;10.30;99.90;;;;;;4999617;28;20038;-67
2023/04/01 04:22:15;;;;;;;12.00;5.65;;;10.30;99.90;;;;;;5011882;28;20033;-67
2023/04/01 04:24:41;;;;;;;11.27;5.43;;;10.30;99.90;;;;;;5013096;28;20041;-67
2023/04/01 04:27:07;;;;;;;11.95;5.75;;;10.40;99.90;;;;;;5007717;28;20408;-67
2023/04/01 04:29:32;;;;;;;11.02;5.13;;;10.30;99.90;;;;;;5012018;28;20096;-67
2023/04/01 04:31:58;;;;;;;9.70;5.22;;;10.40;99.90;;;;;;5012776;28;20125;-66
2023/04/01 04:34:23;;;;;;;10.50;5.65;;;10.40;99.90;;;;;;5008645;28;20134;-66
2023/04/01 04:36:49;;;;;;;11.32;5.10;;;10.30;99.90;;;;;;5004446;28;20061;-66
2023/04/01 04:39:15;;;;;;;9.98;5.13;;;10.40;99.90;;;;;;5013828;28;20552;-66
2023/04/01 04:41:41;;;;;;;8.10;5.05;;;10.40;99.90;;;;;;5012705;28;20137;-66
2023/04/01 04:44:07;;;;;;;9.50;5.20;;;10.40;99.90;;;;;;5008572;28;20531;-66
2023/04/01 04:46:32;;;;;;;10.30;5.43;;;10.40;99.90;;;;;;5005870;28;20485;-66
2023/04/01 04:48:58;;;;;;;13.02;5.80;;;10.40;99.90;;;;;;5012444;28;20034;-66
2023/04/01 04:51:24;;;;;;;11.23;5.60;;;10.40;99.90;;;;;;5012782;28;20042;-66
2023/04/01 04:53:50;;;;;;;10.32;5.22;;;10.40;99.90;;;;;;5001782;28;20258;-66
2023/04/01 04:56:19;;;;;;;11.95;5.25;;;10.40;99.90;;;;;;4983858;28;20727;-66
2023/04/01 04:58:45;;;;;;;11.20;5.47;;;10.40;99.90;;;;;;4996685;28;20551;-66
2023/04/01 05:01:13;;;;;;;11.65;5.43;;;10.40;99.90;;;;;;4994874;28;20035;-66
2023/04/01 05:03:39;;;;;;;13.23;5.75;;;10.40;99.90;;;;;;4996176;28;20042;-66
2023/04/01 05:06:07;;;;;;;10.75;5.53;;;10.40;99.90;;;;;;4986575;28;20054;-66
2023/04/01 05:08:33;;;;;;;9.90;5.38;;;10.40;99.90;;;;;;5005449;28;20500;-68
2023/04/01 05:10:59;;;;;;;10.68;5.60;;;10.40;99.90;;;;;;4998042;28;20042;-68
2023/04/01 05:13:25;;;;;;;12.05;5.60;;;10.50;99.90;;;;;;4984155;28;20056;-68
2023/04/01 05:15:50;;;;;;;13.63;6.60;;;10.40;99.90;;;;;;5006793;28;20030;-68
2023/04/01 05:18:16;;;;;;;11.63;6.07;;;10.50;99.90;;;;;;5011427;28;20066;-68
2023/04/01 05:20:53;;;;;;;15.82;7.22;;;10.50;99.90;;;;;;4994034;28;20404;-67
2023/04/01 05:23:21;;;;;;;14.45;7.22;;;10.40;99.90;;;;;;5004413;28;20041;-67
2023/04/01 05:25:50;;;;;;;16.88;7.50;;;10.50;99.90;;;;;;4989865;28;20060;-67
2023/04/01 05:28:16;;;;;;;15.45;7.55;;;10.50;99.90;;;;;;5011436;28;20046;-67
2023/04/01 05:30:43;;;;;;;12.30;6.82;;;10.50;99.90;;;;;;5007476;28;20046;-67
2023/04/01 05:33:10;;;;;;;14.25;7.38;;;10.50;99.90;;;;;;5007796;28;20042;-67
2023/04/01 05:35:36;;;;;;;15.10;6.72;;;10.50;99.90;;;;;;5011934;28;20042;-67
2023/04/01 05:38:02;;;;;;;14.95;7.43;;;10.50;99.90;;;;;;5011876;28;20038;-67
2023/04/01 05:40:28;;;;;;;13.18;6.97;;;10.50;99.90;;;;;;5009472;28;20038;-67
2023/04/01 05:42:54;;;;;;;14.00;6.75;;;10.50;99.90;;;;;;4992833;28;20045;-67
2023/04/01 05:45:20;;;;;;;14.13;6.97;;;10.50;99.90;;;;;;4997506;28;20037;-66
2023/04/01 05:47:45;;;;;;;13.68;7.00;;;10.50;99.90;;;;;;5002503;28;20392;-66
2023/04/01 05:50:11;;;;;;;14.05;6.63;;;10.50;99.90;;;;;;4995751;28;20298;-66
2023/04/01 05:52:37;;;;;;;13.82;5.97;;;10.50;99.90;;;;;;4990706;28;20034;-66
2023/04/01 05:55:04;;;;;;;13.40;6.28;;;10.50;99.90;;;;;;4999460;28;20038;-66
2023/04/01 05:57:30;;;;;;;12.38;6.25;;;10.50;99.90;;;;;;4987177;28;20044;-67
2023/04/01 05:59:55;;;;;;;13.13;6.82;;;10.50;99.90;;;;;;4985846;28;20041;-66
2023/04/01 06:02:21;;;;;;;13.27;6.40;;;10.60;99.90;;;;;;4985996;28;20040;-66
2023/04/01 06:04:47;;;;;;;11.35;6.22;;;10.50;99.90;;;;;;4998938;28;20443;-66
2023/04/01 06:07:17;;;;;;;12.02;5.97;;;10.60;99.90;;;;;;4986902;28;20409;-68
2023/04/01 06:09:44;;;;;;;10.73;5.67;;;10.50;99.90;;;;;;5011344;28;20034;-68
2023/04/01 06:12:36;;;;;;;10.90;5.25;;;10.60;99.90;;;;;;5011718;28;20078;-68
2023/04/01 06:15:01;;;;;;;;;;;10.60;99.90;;;;;;5001109;28;20092;-68
2023/04/01 06:17:54;;;;;;;9.27;4.93;;;10.70;99.90;;;;;;5014708;28;19918;-67
2023/04/01 06:20:35;;;;;;;12.68;5.80;;;10.70;99.90;;;;;;4991667;28;20513;-67
2023/04/01 06:23:12;;;;;;;16.25;7.72;;;10.70;99.90;;;;;;4996842;28;20045;-67
2023/04/01 06:26:09;;;;;;;14.80;6.50;;;10.70;99.90;;;;;;5010902;28;20373;-67
2023/04/01 06:28:41;;;;;;;14.90;6.20;;;10.70;99.90;;;;;;4997709;28;20463;-67
2023/04/01 06:31:38;;;;;;;12.88;5.85;;;10.70;99.90;;;;;;5010349;28;20064;-67
2023/04/01 06:34:25;;;;;;;9.68;5.20;;;10.70;99.90;;;;;;5015371;28;20042;-67
2023/04/01 06:37:00;;;;;;;9.45;4.55;;;10.70;99.90;;;;;;4992702;28;20050;-67
2023/04/01 06:39:45;;;;;;;7.93;4.53;;;10.80;99.90;;;;;;5000733;28;20042;-67
2023/04/01 06:42:27;;;;;;;7.93;4.15;;;10.70;99.90;;;;;;4995749;28;20096;-67
2023/04/01 06:45:03;;;;;;;6.80;3.90;;;10.70;99.90;;;;;;5015456;28;20459;-67
2023/04/01 06:47:37;;;;;;;8.60;4.38;;;10.80;99.90;;;;;;5002043;28;20042;-67
2023/04/01 06:50:45;;;;;;;7.15;3.95;;;10.80;99.90;;;;;;5003237;28;20049;-67
2023/04/01 06:53:24;;;;;;;8.10;4.32;;;10.80;99.90;;;;;;4997243;28;20042;-67
2023/04/01 06:56:07;;;;;;;11.02;5.40;;;10.80;99.90;;;;;;4996679;28;20042;-67
2023/04/01 06:58:46;;;;;;;10.32;5.63;;;10.80;99.90;;;;;;4990160;28;20121;-67
2023/04/01 07:01:19;;;;;;;8.25;4.53;;;10.80;99.90;;;;;;5014934;28;20034;-67
2023/04/01 07:04:00;;;;;;;6.28;3.47;;;10.80;99.90;;;;;;5004339;28;20053;-67
2023/04/01 07:06:50;;;;;;;5.65;3.13;;;10.80;99.90;;;;;;4989626;28;20053;-67
2023/04/01 07:09:31;;;;;;;7.18;3.45;;;10.80;99.90;;;;;;5013438;28;20495;-67
2023/04/01 07:12:10;;;;;;;6.65;4.00;;;10.90;99.90;;;;;;5002033;28;20038;-67
2023/04/01 07:14:40;;;;;;;6.93;3.92;;;10.80;99.90;;;;;;5004885;28;20105;-67
2023/04/01 07:17:33;;;;;;;7.97;4.40;;;10.80;99.90;;;;;;4998106;28;20120;-67
2023/04/01 07:20:15;;;;;;;7.40;4.03;;;10.90;99.90;;;;;;5008884;28;20422;-67
2023/04/01 07:25:20;;;;;;;6.25;3.60;;;10.90;99.90;;;;;;5154045;22;20072;-65
2023/04/01 07:27:46;;;;;;;7.07;3.63;;;10.90;99.90;;;;;;5003660;28;20029;-68
2023/04/01 07:33:22;;;;;;;7.32;4.40;;;11.00;99.90;;;;;;5419914;23;20061;-69
2023/04/01 07:35:58;;;;;;;7.30;4.20;;;11.00;99.90;;;;;;5008360;28;20049;-70
2023/04/01 07:45:05;;;;;;;7.53;4.20;;;11.00;99.90;;;;;;5084812;23;20317;-66
2023/04/01 07:47:48;;;;;;;7.35;4.20;;;11.10;99.90;;;;;;4959471;28;20399;-66
2023/04/01 07:53:15;;;;;;;11.48;5.80;;;11.20;99.90;;;;;;5149057;23;20416;-66
2023/04/01 07:56:02;;;;;;;12.35;6.45;;;11.20;99.90;;;;;;4958445;28;20047;-66
2023/04/01 07:58:57;;;;;;;11.52;6.57;;;11.30;99.90;;;;;;4977199;28;20098;-66
2023/04/01 08:05:30;;;;;;;13.20;7.22;;;11.30;99.90;;;;;;5009215;23;20057;-65
2023/04/01 08:08:12;;;;;;;16.45;7.07;;;11.30;99.90;;;;;;4958391;28;20066;-67
2023/04/01 08:11:09;;;;;;;14.20;7.28;;;11.30;99.90;;;;;;4959785;28;20137;-67
2023/04/01 08:13:43;;;;;;;16.67;7.18;;;11.30;99.90;;;;;;4955536;28;20054;-67
2023/04/01 08:16:17;;;;;;;14.70;6.90;;;11.30;99.90;;;;;;4977116;28;20089;-67
2023/04/01 08:18:54;;;;;;;15.75;7.72;;;11.40;99.90;;;;;;4970085;28;20039;-67
2023/04/01 08:21:42;;;;;;;15.18;7.60;;;11.40;99.90;;;;;;4967379;28;20089;-67
2023/04/01 08:24:26;;;;;;;15.63;8.10;;;11.40;99.90;;;;;;4950489;28;20093;-67
2023/04/01 08:26:56;;;;;;;15.02;7.68;;;11.40;99.90;;;;;;4969984;28;20038;-67
2023/04/01 08:29:36;;;;;;;15.20;7.85;;;11.50;99.90;;;;;;4967809;28;20117;-67
2023/04/01 08:32:10;;;;;;;18.10;8.38;;;11.70;99.90;;;;;;4972079;28;20046;-67
2023/04/01 08:34:43;;;;;;;16.45;8.23;;;11.70;99.90;;;;;;4969731;28;20035;-67
2023/04/01 08:37:17;;;;;;;17.80;8.52;;;11.70;99.90;;;;;;4971398;28;20082;-67
2023/04/01 08:40:19;;;;;;;13.90;7.88;;;11.70;99.90;;;;;;4972211;28;20079;-67
2023/04/01 08:43:08;;;;;;;19.58;7.95;;;11.70;99.90;;;;;;4972606;28;20042;-67
2023/04/01 08:45:56;;;;;;;14.48;6.95;;;11.70;99.90;;;;;;4952930;28;20553;-67
2023/04/01 08:48:43;;;;;;;14.73;7.78;;;11.70;99.90;;;;;;4964705;28;20508;-67
2023/04/01 08:51:42;;;;;;;15.25;7.97;;;11.70;99.90;;;;;;4970605;28;20047;-68
2023/04/01 08:54:29;;;;;;;12.52;7.38;;;11.80;99.90;;;;;;4971432;28;20047;-68
2023/04/01 08:57:23;;;;;;;12.43;6.95;;;11.80;99.90;;;;;;4973487;28;20480;-68
2023/04/01 08:59:49;;;;;;;13.73;6.32;;;11.90;99.90;;;;;;4964165;28;20036;-68
2023/04/01 09:02:51;;;;;;;8.05;4.90;;;12.00;99.90;;;;;;4979802;28;20536;-68
2023/04/01 09:05:36;;;;;;;8.77;4.30;;;12.10;99.90;;;;;;4973097;28;20043;-68
2023/04/01 09:08:30;;;;;;;7.43;4.63;;;12.10;99.90;;;;;;4971175;28;20085;-68
2023/04/01 09:11:12;;;;;;;5.85;3.58;;;12.20;99.90;;;;;;4971628;28;20041;-68
2023/04/01 09:13:56;;;;;;;7.75;3.85;;;12.20;99.90;;;;;;4973039;28;20109;-68
2023/04/01 09:16:39;;;;;;;6.10;3.33;;;12.20;99.90;;;;;;4953231;28;20042;-68
2023/04/01 09:19:48;;;;;;;5.18;3.40;;;12.30;99.90;;;;;;4983255;28;20045;-68
2023/04/01 09:22:46;;;;;;;7.95;3.20;;;12.40;99.90;;;;;;4950160;28;20105;-68
2023/04/01 09:25:23;;;;;;;5.40;3.40;;;12.60;99.90;;;;;;4967841;28;20042;-68
2023/04/01 09:28:32;;;;;;;3.80;2.63;;;12.80;99.90;;;;;;4966548;28;20039;-68
2023/04/01 09:31:27;;;;;;;3.50;2.20;;;12.60;99.90;;;;;;4966575;28;20058;-68
2023/04/01 09:34:15;;;;;;;4.25;2.30;;;12.50;99.90;;;;;;4973063;28;20050;-68
2023/04/01 09:36:57;;;;;;;4.10;2.60;;;12.40;99.90;;;;;;4970486;28;20039;-68
2023/04/01 09:39:35;;;;;;;3.95;2.75;;;12.40;99.90;;;;;;4964985;28;20552;-68
2023/04/01 09:42:13;;;;;;;4.70;3.22;;;12.50;99.90;;;;;;4955738;28;20446;-68
2023/04/01 09:44:58;;;;;;;4.95;3.15;;;12.50;99.90;;;;;;4963835;28;20485;-68
2023/04/01 09:47:33;;;;;;;5.18;3.10;;;12.50;99.90;;;;;;4969467;28;20045;-68
2023/04/01 09:50:17;;;;;;;5.82;3.40;;;12.50;99.90;;;;;;4972889;28;20497;-68
2023/04/01 09:53:08;;;;;;;5.30;3.55;;;12.60;99.90;;;;;;4969435;28;20094;-68
2023/04/01 09:56:20;;;;;;;5.15;3.72;;;12.40;99.90;;;;;;4948882;28;20177;-68
2023/04/01 09:59:08;;;;;;;7.43;3.97;;;12.40;99.90;;;;;;4951924;28;20481;-68
2023/04/01 10:02:08;;;;;;;6.75;4.10;;;12.30;99.90;;;;;;4959898;28;20058;-68
2023/04/01 10:05:16;;;;;;;7.45;4.43;;;12.30;99.90;;;;;;4966237;28;20045;-68
2023/04/01 10:08:12;;;;;;;6.18;4.13;;;12.30;99.90;;;;;;4964322;28;20066;-68
2023/04/01 10:11:02;;;;;;;9.63;4.57;;;12.30;99.90;;;;;;4970298;28;20061;-68
2023/04/01 10:13:48;;;;;;;6.15;4.13;;;12.30;99.90;;;;;;4972589;28;20128;-68
2023/04/01 10:17:00;;;;;;;8.95;4.80;;;12.40;99.90;;;;;;4964918;28;20049;-68
2023/04/01 10:19:25;;;;;;;6.90;4.60;;;12.40;99.90;;;;;;4957042;28;20038;-68
2023/04/01 10:22:28;;;;;;;7.10;4.60;;;12.50;99.90;;;;;;4969860;28;20034;-68
2023/04/01 10:25:08;;;;;;;6.93;4.68;;;12.60;99.90;;;;;;4964684;28;20039;-68
2023/04/01 10:28:08;;;;;;;7.70;4.70;;;12.70;99.90;;;;;;4965713;28;20035;-68
2023/04/01 10:31:00;;;;;;;6.55;4.70;;;12.80;99.90;;;;;;4966234;28;20043;-68
2023/04/01 10:33:54;;;;;;;8.45;4.50;;;12.80;99.90;;;;;;4957339;28;20102;-68
2023/04/01 10:37:02;;;;;;;7.55;4.40;;;12.90;99.90;;;;;;4968071;28;20039;-68
2023/04/01 10:39:55;;;;;;;6.80;4.70;;;13.10;99.90;;;;;;4911421;29;20506;-68
2023/04/01 10:42:54;;;;;;;7.53;4.65;;;13.10;99.90;;;;;;4896894;29;20059;-68
2023/04/01 10:45:43;;;;;;;7.25;4.90;;;13.10;99.90;;;;;;4956792;28;20093;-69
2023/04/01 10:48:36;;;;;;;6.68;5.00;;;13.20;99.90;;;;;;4933653;28;20051;-68
2023/04/01 10:51:25;;;;;;;7.60;4.80;;;13.10;99.90;;;;;;4968386;28;20078;-69
2023/04/01 10:53:59;;;;;;;7.65;4.82;;;13.10;99.90;;;;;;4969794;28;20474;-68
2023/04/01 10:56:57;;;;;;;6.13;4.45;;;13.00;99.90;;;;;;4963537;28;20039;-68
2023/04/01 11:00:02;;;;;;;7.05;4.90;;;13.00;99.90;;;;;;4971145;28;20043;-68
2023/04/01 11:02:46;;;;;;;6.07;4.65;;;13.10;99.90;;;;;;4963480;28;20050;-67
2023/04/01 11:05:49;;;;;;;6.90;4.97;;;13.10;99.90;;;;;;4970780;28;20043;-67
2023/04/01 11:08:47;;;;;;;6.85;4.90;;;13.10;99.90;;;;;;4966621;28;20047;-67
2023/04/01 11:11:36;;;;;;;7.07;5.13;;;13.20;99.90;;;;;;4953441;28;20413;-67
2023/04/01 11:14:30;;;;;;;8.38;5.15;;;13.40;99.90;;;;;;4956457;28;20051;-67
2023/04/01 11:17:26;;;;;;;6.60;4.70;;;13.40;99.90;;;;;;4961189;28;20134;-67
2023/04/01 11:20:22;;;;;;;7.88;4.50;;;13.40;99.90;;;;;;4972062;28;20042;-67
2023/04/01 11:23:09;;;;;;;6.55;4.43;;;13.40;99.90;;;;;;4971345;28;20062;-67
2023/04/01 11:26:07;;;;;;;6.60;4.50;;;13.50;99.90;;;;;;4962309;28;20045;-67
2023/04/01 11:28:47;;;;;;;7.32;5.05;;;13.50;99.90;;;;;;4971971;28;20114;-67
2023/04/01 11:31:46;;;;;;;6.80;4.80;;;13.60;99.90;;;;;;4973844;28;20489;-67
2023/04/01 11:34:31;;;;;;;6.88;4.80;;;13.70;99.90;;;;;;4949793;28;20052;-66
2023/04/01 11:37:22;;;;;;;7.78;5.13;;;13.70;99.90;;;;;;4967759;28;20070;-66
2023/04/01 11:40:06;;;;;;;;;;;13.70;99.90;;;;;;4963711;28;20062;-66
2023/04/01 11:43:06;;;;;;;7.50;5.03;;;13.80;99.90;;;;;;4960375;28;19922;-66
2023/04/01 11:45:58;;;;;;;12.68;6.07;;;13.90;99.90;;;;;;4964829;28;20069;-66
2023/04/01 11:48:46;;;;;;;9.20;6.40;;;13.90;99.90;;;;;;4971417;28;20101;-66
2023/04/01 11:51:42;;;;;;;6.15;4.45;;;13.80;99.90;;;;;;4974694;28;20046;-67
2023/04/01 11:54:44;;;;;;;7.35;5.72;;;13.30;99.90;;;;;;4975544;28;20046;-66
2023/04/01 11:57:45;;;;;;;7.30;5.70;;;12.90;99.90;;;;;;4959057;28;20089;-67
2023/04/01 12:00:32;;;;;;;8.07;4.90;;;12.80;99.90;;;;;;4974197;28;20039;-66
2023/04/01 12:03:33;;;;;;;6.50;5.03;;;12.60;99.90;;;;;;4975079;28;20049;-66
2023/04/01 12:06:30;;;;;;;6.43;4.07;;;12.50;99.90;;;;;;4975928;28;20038;-66
2023/04/01 12:09:08;;;;;;;8.48;4.72;;;12.20;99.90;;;;;;4952012;28;20489;-67
2023/04/01 12:12:11;;;;;;;5.05;3.50;;;12.10;99.90;;;;;;4975168;28;20042;-67
2023/04/01 12:14:58;;;;;;;8.45;4.40;;;12.00;99.90;;;;;;4970179;28;20053;-66
2023/04/01 12:17:48;;;;;;;6.25;4.60;;;11.90;99.90;;;;;;4973212;28;20041;-66
2023/04/01 12:20:24;;;;;;;6.27;3.80;;;11.90;99.90;;;;;;4966453;28;20043;-66
2023/04/01 12:23:06;;;;;;;5.97;4.07;;;11.90;99.90;;;;;;4970924;28;20101;-67
2023/04/01 12:25:53;;;;;;;7.70;4.22;;;11.90;99.90;;;;;;4959676;28;20039;-66
2023/04/01 12:29:04;;;;;;;4.75;3.78;;;11.80;99.90;;;;;;4967131;28;20044;-66
2023/04/01 12:32:05;;;;;;;5.78;4.07;;;11.60;99.90;;;;;;4954142;28;20141;-66
2023/04/01 12:35:03;;;;;;;5.47;3.80;;;11.60;99.90;;;;;;4966186;28;20085;-67
2023/04/01 12:38:06;;;;;;;5.18;3.78;;;11.60;99.90;;;;;;4948908;28;20083;-66
2023/04/01 12:40:32;;;;;;;5.18;3.80;;;11.60;99.90;;;;;;4972234;28;20082;-66
2023/04/01 12:43:21;;;;;;;5.30;3.83;;;11.50;99.90;;;;;;4938267;28;20087;-66
2023/04/01 12:46:09;;;;;;;5.03;3.75;;;11.60;99.90;;;;;;4967389;28;20042;-66
2023/04/01 12:48:56;;;;;;;5.50;3.78;;;11.60;99.90;;;;;;4969542;28;20042;-66
2023/04/01 12:51:49;;;;;;;4.88;3.60;;;11.60;99.90;;;;;;4981204;28;20031;-66
2023/04/01 12:54:39;;;;;;;4.35;3.30;;;11.60;99.90;;;;;;4973693;28;20505;-67
2023/04/01 12:57:48;;;;;;;5.72;3.88;;;11.50;99.90;;;;;;4971122;28;20189;-66
2023/04/01 13:00:43;;;;;;;5.47;4.18;;;11.50;99.90;;;;;;4973598;28;20118;-66
2023/04/01 13:03:36;;;;;;;5.18;3.88;;;11.50;99.90;;;;;;4973067;28;20043;-66
2023/04/01 13:06:26;;;;;;;6.22;4.00;;;11.40;99.90;;;;;;4974567;28;20038;-67
2023/04/01 13:08:59;;;;;;;5.72;4.05;;;11.50;99.90;;;;;;4974070;28;20504;-66
2023/04/01 13:11:51;;;;;;;5.05;3.85;;;11.50;99.90;;;;;;4971170;28;20054;-66
2023/04/01 13:14:35;;;;;;;5.20;4.15;;;11.50;99.90;;;;;;4960174;28;20378;-66
2023/04/01 13:17:22;;;;;;;5.07;3.85;;;11.40;99.90;;;;;;4965619;28;20489;-67
2023/04/01 13:20:07;;;;;;;4.90;3.80;;;11.50;99.90;;;;;;4970483;28;20042;-66
2023/04/01 13:22:48;;;;;;;5.97;4.10;;;11.50;99.90;;;;;;4948949;28;20410;-66
2023/04/01 13:25:37;;;;;;;4.75;3.72;;;11.50;99.90;;;;;;4974258;28;20043;-66
2023/04/01 13:28:16;;;;;;;6.13;3.88;;;11.50;99.90;;;;;;4965275;28;20046;-66
2023/04/01 13:30:47;;;;;;;5.13;3.63;;;11.40;99.90;;;;;;4947889;28;20086;-67
2023/04/01 13:33:32;;;;;;;;;;;11.30;99.90;;;;;;4948039;28;20043;-66
2023/04/01 13:36:23;;;;;;;4.43;3.42;;;11.20;99.90;;;;;;4972965;28;19922;-66
2023/04/01 13:39:06;;;;;;;6.32;4.10;;;11.20;99.90;;;;;;4954951;28;20047;-66
2023/04/01 13:41:50;;;;;;;7.32;4.20;;;11.10;99.90;;;;;;4952953;28;20066;-67
2023/04/01 13:44:30;;;;;;;4.80;3.58;;;11.00;99.90;;;;;;4971993;28;20125;-66
2023/04/01 13:47:41;;;;;;;5.43;3.77;;;10.90;99.90;;;;;;4973065;28;20049;-66
2023/04/01 13:50:15;;;;;;;5.07;3.80;;;10.80;99.90;;;;;;4970701;28;20050;-66
2023/04/01 13:52:50;;;;;;;4.90;3.78;;;10.70;99.90;;;;;;4971025;28;20054;-66
2023/04/01 13:55:25;;;;;;;5.47;4.00;;;10.70;99.90;;;;;;4978915;28;20053;-66
2023/04/01 13:58:02;;;;;;;5.68;4.22;;;10.70;99.90;;;;;;4973375;28;20548;-66
2023/04/01 14:00:45;;;;;;;6.55;4.05;;;10.70;99.90;;;;;;4973943;28;20544;-66